Time;durP1;ratioP1;P1;durP2;ratioP2;P2;SDS_P1;SDS_P2;PMS_P1;PMS_P2;Temp;Humidity;BMP_temperature;BMP_pressure;BME280_temperature;BME280_humidity;BME280_pressure;Samples;Min_cycle;Max_cycle;Signal;HPM_P1;HPM_P2
2023/02/07 00:02:19;;;;;;;7.53;6.33;;;2.70;99.90;;;;;;5018273;28;20562;-64
2023/02/07 00:04:45;;;;;;;10.13;7.73;;;2.60;99.90;;;;;;5019384;28;20241;-64
2023/02/07 00:07:10;;;;;;;8.80;6.50;;;2.70;99.90;;;;;;5018038;28;20257;-64
2023/02/07 00:09:36;;;;;;;7.60;6.70;;;2.50;99.90;;;;;;5018765;28;20228;-64
2023/02/07 00:12:03;;;;;;;7.27;6.23;;;2.40;99.90;;;;;;5000314;28;20183;-64
2023/02/07 00:14:28;;;;;;;7.85;6.88;;;2.20;99.90;;;;;;5022062;28;20203;-64
2023/02/07 00:16:54;;;;;;;9.37;6.73;;;1.60;99.90;;;;;;5014693;28;20207;-64
2023/02/07 00:19:20;;;;;;;6.70;5.67;;;2.10;99.90;;;;;;5010789;28;20245;-64
2023/02/07 00:21:45;;;;;;;7.33;6.60;;;2.10;99.90;;;;;;5014213;28;20182;-63
2023/02/07 00:24:11;;;;;;;12.70;6.80;;;1.80;99.90;;;;;;5017160;28;20710;-63
2023/02/07 00:26:37;;;;;;;7.47;6.03;;;1.90;99.90;;;;;;5018379;28;20290;-64
2023/02/07 00:29:03;;;;;;;7.63;6.30;;;1.80;99.90;;;;;;5013066;28;20325;-65
2023/02/07 00:31:31;;;;;;;8.95;6.03;;;1.60;99.90;;;;;;5021492;28;20469;-63
2023/02/07 00:33:59;;;;;;;7.20;5.90;;;1.70;99.90;;;;;;5025429;28;20209;-63
2023/02/07 00:36:26;;;;;;;7.45;6.07;;;1.10;99.90;;;;;;5021329;28;20211;-63
2023/02/07 00:38:56;;;;;;;8.35;6.18;;;1.30;99.90;;;;;;5018915;28;20187;-63
2023/02/07 00:41:22;;;;;;;7.93;5.55;;;0.70;99.90;;;;;;5014100;28;20195;-64
2023/02/07 00:43:48;;;;;;;6.47;5.70;;;1.20;99.90;;;;;;5026730;28;20236;-69
2023/02/07 00:46:14;;;;;;;7.10;5.60;;;1.30;99.90;;;;;;5009687;28;20203;-64
2023/02/07 00:48:40;;;;;;;9.20;6.07;;;1.20;99.90;;;;;;5022176;28;20197;-63
2023/02/07 00:51:06;;;;;;;8.10;6.00;;;1.30;99.90;;;;;;5016744;28;20206;-63
2023/02/07 00:53:32;;;;;;;6.97;6.20;;;1.20;99.90;;;;;;5020266;28;20649;-66
2023/02/07 00:55:57;;;;;;;9.20;6.10;;;1.40;99.90;;;;;;5014765;28;20199;-62
2023/02/07 00:58:23;;;;;;;8.67;5.93;;;1.30;99.90;;;;;;5021930;28;20433;-66
2023/02/07 01:00:49;;;;;;;7.90;6.40;;;0.70;99.90;;;;;;5014360;28;20627;-68
2023/02/07 01:03:15;;;;;;;7.00;5.30;;;1.40;99.90;;;;;;5016436;28;20442;-65
2023/02/07 01:05:41;;;;;;;8.00;5.95;;;1.30;99.90;;;;;;5018509;28;20677;-68
2023/02/07 01:08:07;;;;;;;8.35;7.10;;;1.30;99.90;;;;;;4998474;28;20214;-65
2023/02/07 01:10:33;;;;;;;6.73;5.73;;;1.30;99.90;;;;;;5019982;28;20297;-63
2023/02/07 01:12:58;;;;;;;6.53;5.93;;;0.70;99.90;;;;;;5017041;28;20859;-64
2023/02/07 01:15:24;;;;;;;9.60;6.37;;;1.20;99.90;;;;;;5013210;28;20237;-64
2023/02/07 01:17:50;;;;;;;7.40;6.13;;;1.10;99.90;;;;;;5016072;28;20174;-65
2023/02/07 01:20:16;;;;;;;8.27;6.87;;;0.70;99.90;;;;;;5016927;28;20719;-65
2023/02/07 01:22:41;;;;;;;8.80;6.90;;;1.30;99.90;;;;;;5015155;28;20191;-62
2023/02/07 01:25:08;;;;;;;11.27;7.20;;;1.30;99.90;;;;;;5014061;28;20194;-64
2023/02/07 01:27:34;;;;;;;10.38;7.78;;;1.10;99.90;;;;;;5020224;28;20210;-64
2023/02/07 01:30:00;;;;;;;11.48;8.23;;;1.10;99.90;;;;;;5016900;28;20257;-63
2023/02/07 01:32:26;;;;;;;9.85;8.00;;;1.20;99.90;;;;;;5014732;28;20683;-64
2023/02/07 01:34:52;;;;;;;8.93;7.03;;;1.00;99.90;;;;;;5019253;28;20201;-63
2023/02/07 01:37:17;;;;;;;11.50;8.20;;;1.10;99.90;;;;;;5018572;28;20574;-63
2023/02/07 01:39:43;;;;;;;10.23;7.60;;;0.50;99.90;;;;;;5017901;28;20690;-63
2023/02/07 01:42:13;;;;;;;10.27;8.00;;;0.40;99.90;;;;;;5020241;28;20567;-63
2023/02/07 01:44:41;;;;;;;9.45;7.72;;;0.90;99.90;;;;;;5002358;28;20182;-63
2023/02/07 01:47:15;;;;;;;12.60;8.95;;;0.80;99.90;;;;;;5014983;28;20214;-63
2023/02/07 01:49:41;;;;;;;8.60;7.05;;;0.00;99.90;;;;;;5013105;28;20211;-63
2023/02/07 01:52:15;;;;;;;13.20;8.35;;;1.00;99.90;;;;;;5020116;28;20185;-63
2023/02/07 01:54:42;;;;;;;10.68;8.77;;;0.30;99.90;;;;;;5018947;28;20191;-63
2023/02/07 01:57:11;;;;;;;11.85;9.35;;;1.00;99.90;;;;;;5012318;28;20241;-63
2023/02/07 01:59:42;;;;;;;13.85;10.85;;;0.80;99.90;;;;;;5014310;28;20194;-63
2023/02/07 02:02:10;;;;;;;13.43;9.75;;;0.60;99.90;;;;;;5016255;28;20192;-63
2023/02/07 02:04:37;;;;;;;11.98;10.10;;;0.20;99.90;;;;;;5015598;28;20243;-63
2023/02/07 02:07:05;;;;;;;13.40;10.10;;;0.60;99.90;;;;;;5016112;28;20211;-62
2023/02/07 02:09:30;;;;;;;14.52;10.18;;;0.80;99.90;;;;;;5015034;28;20688;-63
2023/02/07 02:12:35;;;;;;;11.47;9.50;;;-0.10;99.90;;;;;;5015765;28;20198;-62
2023/02/07 02:15:36;;;;;;;11.20;8.50;;;0.40;99.90;;;;;;5018998;28;20200;-62
2023/02/07 02:18:16;;;;;;;16.13;10.55;;;0.60;99.90;;;;;;4936580;28;20270;-63
2023/02/07 02:21:01;;;;;;;13.23;9.93;;;0.60;99.90;;;;;;5016482;28;20198;-62
2023/02/07 02:23:49;;;;;;;12.90;9.38;;;0.40;99.90;;;;;;5017006;28;20277;-63
2023/02/07 02:26:50;;;;;;;14.02;10.27;;;0.20;99.90;;;;;;5020256;28;20211;-63
2023/02/07 02:29:58;;;;;;;12.48;10.50;;;0.00;99.90;;;;;;5018472;28;20683;-63
2023/02/07 02:32:32;;;;;;;14.48;10.05;;;0.30;99.90;;;;;;4992895;28;20229;-62
2023/02/07 02:35:19;;;;;;;15.88;10.10;;;-0.20;99.90;;;;;;5018299;28;20424;-63
2023/02/07 02:38:03;;;;;;;12.80;9.63;;;0.10;99.90;;;;;;5001970;28;20201;-63
2023/02/07 02:40:54;;;;;;;12.82;10.55;;;0.20;99.90;;;;;;5015286;28;20268;-63
2023/02/07 02:43:34;;;;;;;14.93;10.88;;;0.30;99.90;;;;;;5021576;28;20648;-63
2023/02/07 02:46:22;;;;;;;13.07;10.27;;;0.20;99.90;;;;;;5019636;28;20572;-62
2023/02/07 02:48:49;;;;;;;14.43;10.68;;;0.40;99.90;;;;;;5021341;28;20464;-62
2023/02/07 02:51:14;;;;;;;11.95;10.15;;;0.10;99.90;;;;;;5018125;28;20318;-62
2023/02/07 02:53:49;;;;;;;13.50;10.53;;;0.70;99.90;;;;;;5020258;28;20269;-62
2023/02/07 02:56:42;;;;;;;12.75;10.43;;;0.20;99.90;;;;;;5000270;28;20225;-63
2023/02/07 02:59:22;;;;;;;12.02;9.45;;;0.00;99.90;;;;;;5016571;28;20213;-63
2023/02/07 03:02:02;;;;;;;12.27;9.40;;;0.10;99.90;;;;;;5023699;28;20179;-62
2023/02/07 03:04:48;;;;;;;14.02;11.00;;;0.20;99.90;;;;;;5020397;28;20209;-62
2023/02/07 03:07:33;;;;;;;11.50;9.10;;;0.10;99.90;;;;;;5025121;28;20198;-62
2023/02/07 03:10:27;;;;;;;14.65;10.50;;;0.40;99.90;;;;;;5023149;28;20643;-63
2023/02/07 03:13:00;;;;;;;15.27;10.65;;;0.20;99.90;;;;;;5020078;28;20181;-62
2023/02/07 03:15:46;;;;;;;17.17;10.52;;;0.30;99.90;;;;;;5017362;28;20600;-62
2023/02/07 03:18:27;;;;;;;14.45;10.63;;;0.30;99.90;;;;;;5017295;28;20183;-64
2023/02/07 03:20:59;;;;;;;12.45;10.15;;;0.30;99.90;;;;;;5016285;28;20186;-64
2023/02/07 03:23:27;;;;;;;14.35;10.25;;;0.20;99.90;;;;;;5019772;28;20671;-64
2023/02/07 03:25:55;;;;;;;11.68;10.48;;;0.00;99.90;;;;;;5020556;28;20210;-64
2023/02/07 03:28:22;;;;;;;12.15;10.15;;;0.20;99.90;;;;;;5016333;28;20187;-64
2023/02/07 03:30:52;;;;;;;15.02;11.48;;;0.10;99.90;;;;;;5017019;28;20206;-64
2023/02/07 03:33:19;;;;;;;12.90;11.38;;;0.20;99.90;;;;;;5015864;28;20201;-64
2023/02/07 03:36:09;;;;;;;15.43;11.48;;;-0.20;99.90;;;;;;5019313;28;20225;-64
2023/02/07 03:38:36;;;;;;;12.55;10.40;;;0.10;99.90;;;;;;5003779;28;20172;-64
2023/02/07 03:41:10;;;;;;;15.05;11.60;;;-0.50;99.90;;;;;;5021465;28;20647;-64
2023/02/07 03:43:38;;;;;;;14.50;11.50;;;-0.60;99.90;;;;;;5006007;28;20200;-64
2023/02/07 03:46:08;;;;;;;15.13;11.77;;;0.50;99.90;;;;;;5020838;28;20224;-64
2023/02/07 03:48:33;;;;;;;12.77;10.77;;;0.60;99.90;;;;;;5017632;28;20206;-64
2023/02/07 03:50:59;;;;;;;15.70;12.23;;;-0.50;99.90;;;;;;5019305;28;20215;-64
2023/02/07 03:53:25;;;;;;;14.10;11.53;;;0.30;99.90;;;;;;5013657;28;20191;-64
2023/02/07 03:55:52;;;;;;;16.77;13.25;;;0.10;99.90;;;;;;5019345;28;20229;-64
2023/02/07 03:58:17;;;;;;;15.88;11.35;;;0.00;99.90;;;;;;5019479;28;20187;-65
2023/02/07 04:00:43;;;;;;;13.00;10.70;;;0.20;99.90;;;;;;5021351;28;20193;-64
2023/02/07 04:03:09;;;;;;;16.20;11.50;;;0.30;99.90;;;;;;5017899;28;20198;-64
2023/02/07 04:05:34;;;;;;;15.67;12.57;;;0.30;99.90;;;;;;5017945;28;20232;-64
2023/02/07 04:08:00;;;;;;;14.07;11.60;;;0.10;99.90;;;;;;5019004;28;20453;-65
2023/02/07 04:10:26;;;;;;;13.00;10.70;;;0.10;99.90;;;;;;5019992;28;20214;-64
2023/02/07 04:12:51;;;;;;;15.63;12.27;;;-0.30;99.90;;;;;;5019120;28;20183;-64
2023/02/07 04:15:17;;;;;;;14.80;10.83;;;0.40;99.90;;;;;;5020514;28;20192;-64
2023/02/07 04:17:42;;;;;;;14.83;11.57;;;0.20;99.90;;;;;;5014575;28;20564;-64
2023/02/07 04:20:09;;;;;;;13.50;10.93;;;0.00;99.90;;;;;;5015891;28;20664;-63
2023/02/07 04:22:34;;;;;;;13.98;11.02;;;0.00;99.90;;;;;;5014120;28;20214;-64
2023/02/07 04:25:00;;;;;;;14.40;11.90;;;0.00;99.90;;;;;;5017699;28;20190;-64
2023/02/07 04:27:25;;;;;;;12.70;10.77;;;-0.30;99.90;;;;;;5014049;28;20306;-64
2023/02/07 04:29:51;;;;;;;13.50;10.60;;;-0.70;99.90;;;;;;5020855;28;20210;-64
2023/02/07 04:32:16;;;;;;;17.80;12.50;;;-0.60;99.90;;;;;;5020275;28;20611;-64
2023/02/07 04:34:42;;;;;;;13.20;10.60;;;-0.60;99.90;;;;;;5018851;28;20199;-64
2023/02/07 04:37:08;;;;;;;12.67;9.17;;;-0.20;99.90;;;;;;4993937;28;20679;-63
2023/02/07 04:39:33;;;;;;;13.77;9.60;;;0.00;99.90;;;;;;5016823;28;20190;-64
2023/02/07 04:41:59;;;;;;;12.63;10.00;;;-0.20;99.90;;;;;;5017220;28;21940;-64
2023/02/07 04:44:25;;;;;;;15.00;11.27;;;-0.20;99.90;;;;;;5021299;28;20228;-64
2023/02/07 04:46:50;;;;;;;11.90;10.43;;;0.00;99.90;;;;;;5018236;28;20561;-64
2023/02/07 04:49:16;;;;;;;13.97;10.00;;;-0.10;99.90;;;;;;5021677;28;20272;-63
2023/02/07 04:51:42;;;;;;;12.60;10.10;;;-0.20;99.90;;;;;;5001576;28;20229;-64
2023/02/07 04:54:07;;;;;;;13.63;10.07;;;-0.20;99.90;;;;;;5020270;28;20189;-64
2023/02/07 04:56:33;;;;;;;11.90;9.20;;;0.00;99.90;;;;;;5020799;28;20202;-64
2023/02/07 04:58:58;;;;;;;12.50;9.70;;;-0.60;99.90;;;;;;5016942;28;20195;-63
2023/02/07 05:01:24;;;;;;;13.53;10.60;;;0.30;99.90;;;;;;5016545;28;20201;-63
2023/02/07 05:03:49;;;;;;;12.40;9.33;;;-0.30;99.90;;;;;;5017783;28;20221;-63
2023/02/07 05:06:15;;;;;;;10.27;8.50;;;-0.30;99.90;;;;;;5017509;28;20691;-64
2023/02/07 05:08:41;;;;;;;10.37;8.77;;;-0.20;99.90;;;;;;5017212;28;20914;-63
2023/02/07 05:11:06;;;;;;;11.27;9.00;;;0.20;99.90;;;;;;5019129;28;20646;-63
2023/02/07 05:13:32;;;;;;;10.53;9.40;;;-0.20;99.90;;;;;;5019440;28;20453;-63
2023/02/07 05:16:00;;;;;;;11.83;9.43;;;-0.70;99.90;;;;;;5018418;28;20233;-63
2023/02/07 05:18:25;;;;;;;12.70;9.65;;;-0.20;99.90;;;;;;5019519;28;20243;-63
2023/02/07 05:20:52;;;;;;;11.60;8.73;;;0.20;99.90;;;;;;5016168;28;20182;-63
2023/02/07 05:23:17;;;;;;;11.90;9.00;;;-0.80;99.90;;;;;;5017132;28;20640;-64
2023/02/07 05:25:43;;;;;;;12.33;9.17;;;-0.30;99.90;;;;;;5016509;28;20221;-64
2023/02/07 05:28:09;;;;;;;11.07;9.07;;;-0.30;99.90;;;;;;5020788;28;20218;-63
2023/02/07 05:30:35;;;;;;;11.27;9.48;;;-0.70;99.90;;;;;;5016262;28;20261;-63
2023/02/07 05:33:04;;;;;;;13.37;9.50;;;-0.70;99.90;;;;;;5016259;28;20728;-63
2023/02/07 05:35:34;;;;;;;11.00;9.23;;;-0.20;99.90;;;;;;4998140;28;20444;-63
2023/02/07 05:38:00;;;;;;;10.45;8.93;;;-0.30;99.90;;;;;;5015776;28;20187;-63
2023/02/07 05:40:26;;;;;;;11.90;9.27;;;-0.70;99.90;;;;;;5017387;28;20203;-63
2023/02/07 05:42:52;;;;;;;11.15;9.32;;;-0.10;99.90;;;;;;5020259;28;20852;-64
2023/02/07 05:45:18;;;;;;;13.43;10.30;;;-0.40;99.90;;;;;;5018819;28;20647;-63
2023/02/07 05:47:44;;;;;;;14.38;11.27;;;-0.20;99.90;;;;;;5015535;28;20186;-63
2023/02/07 05:50:10;;;;;;;15.60;10.97;;;-0.20;99.90;;;;;;5017484;28;20285;-63
2023/02/07 05:52:35;;;;;;;15.90;12.00;;;-0.60;99.90;;;;;;5019120;28;20265;-64
2023/02/07 05:55:01;;;;;;;13.00;10.53;;;0.10;99.90;;;;;;5016345;28;20202;-63
2023/02/07 05:57:26;;;;;;;13.60;11.63;;;-0.70;99.90;;;;;;5017474;28;20203;-64
2023/02/07 05:59:52;;;;;;;14.47;10.97;;;-0.10;99.90;;;;;;5020040;28;20197;-64
2023/02/07 06:02:17;;;;;;;15.40;10.00;;;-0.60;99.90;;;;;;5016700;28;20221;-64
2023/02/07 06:04:43;;;;;;;11.50;9.20;;;-0.10;99.90;;;;;;5017089;28;20201;-65
2023/02/07 06:07:09;;;;;;;13.93;8.67;;;-0.40;99.90;;;;;;5013976;28;20687;-64
2023/02/07 06:09:34;;;;;;;10.40;9.00;;;-0.80;99.90;;;;;;5018182;28;20564;-64
2023/02/07 06:12:00;;;;;;;12.20;9.40;;;-0.20;99.90;;;;;;5015075;28;20281;-63
2023/02/07 06:14:25;;;;;;;9.60;8.43;;;-0.10;99.90;;;;;;5011994;28;20182;-64
2023/02/07 06:16:51;;;;;;;11.00;7.40;;;0.00;99.90;;;;;;5019035;28;20678;-63
2023/02/07 06:19:16;;;;;;;12.40;8.00;;;-0.30;99.90;;;;;;5012384;28;20273;-63
2023/02/07 06:21:42;;;;;;;10.67;7.73;;;-0.20;99.90;;;;;;5015158;28;20693;-64
2023/02/07 06:24:08;;;;;;;10.43;8.33;;;-0.30;99.90;;;;;;5016848;28;20313;-64
2023/02/07 06:26:33;;;;;;;10.10;8.13;;;-0.30;99.90;;;;;;5016394;28;20255;-64
2023/02/07 06:28:59;;;;;;;9.67;7.50;;;-0.30;99.90;;;;;;5017174;28;20210;-69
2023/02/07 06:31:25;;;;;;;9.90;8.57;;;-0.20;99.90;;;;;;4996015;28;21307;-68
2023/02/07 06:33:50;;;;;;;10.63;9.20;;;-0.30;99.90;;;;;;5014918;28;20206;-66
2023/02/07 06:36:16;;;;;;;12.63;9.50;;;0.00;99.90;;;;;;5015554;28;20461;-66
2023/02/07 06:38:42;;;;;;;12.50;9.73;;;-0.70;99.90;;;;;;5015560;28;20647;-64
2023/02/07 06:41:10;;;;;;;10.77;8.90;;;0.00;99.90;;;;;;5019727;28;20190;-68
2023/02/07 06:43:39;;;;;;;12.20;7.97;;;-0.70;99.80;;;;;;5017711;28;20547;-66
2023/02/07 06:46:05;;;;;;;10.10;9.05;;;-0.20;99.90;;;;;;5014549;28;20217;-67
2023/02/07 06:48:30;;;;;;;13.00;9.00;;;0.00;99.90;;;;;;5017669;28;20554;-66
2023/02/07 06:50:56;;;;;;;10.53;7.90;;;-0.20;99.90;;;;;;5015621;28;20985;-66
2023/02/07 06:53:22;;;;;;;11.57;9.23;;;-0.20;99.90;;;;;;5005435;28;20183;-66
2023/02/07 06:55:48;;;;;;;13.43;9.55;;;-0.50;99.90;;;;;;5015221;28;20358;-66
2023/02/07 06:58:14;;;;;;;9.35;8.35;;;-0.20;99.90;;;;;;5016245;28;20703;-65
2023/02/07 07:00:39;;;;;;;11.33;8.30;;;-0.30;99.90;;;;;;5017424;28;20324;-64
2023/02/07 07:03:05;;;;;;;10.10;8.80;;;-1.00;99.80;;;;;;5013363;28;20201;-65
2023/02/07 07:05:31;;;;;;;12.17;8.13;;;-0.30;99.90;;;;;;5013887;28;20689;-64
2023/02/07 07:07:57;;;;;;;11.77;8.75;;;-0.30;99.90;;;;;;5017456;28;20186;-63
2023/02/07 07:10:22;;;;;;;11.57;8.97;;;-0.30;99.90;;;;;;5002707;28;20701;-65
2023/02/07 07:12:48;;;;;;;11.17;8.77;;;0.10;99.90;;;;;;5016444;28;20178;-64
2023/02/07 07:15:14;;;;;;;12.03;8.17;;;-0.40;99.90;;;;;;5018819;28;20501;-64
2023/02/07 07:17:40;;;;;;;10.93;8.55;;;-0.40;99.90;;;;;;5016659;28;20267;-64
2023/02/07 07:20:07;;;;;;;16.23;9.30;;;-0.20;99.90;;;;;;5017569;28;20186;-65
2023/02/07 07:22:36;;;;;;;11.63;8.18;;;-0.20;99.90;;;;;;5016410;28;20191;-65
2023/02/07 07:25:03;;;;;;;11.20;8.70;;;-0.20;99.90;;;;;;5014937;28;20194;-65
2023/02/07 07:27:28;;;;;;;11.55;9.70;;;-0.20;99.90;;;;;;5017281;28;20205;-67
2023/02/07 07:29:54;;;;;;;13.27;9.03;;;-0.70;99.70;;;;;;5020707;28;20267;-68
2023/02/07 07:32:19;;;;;;;11.67;9.83;;;0.00;99.80;;;;;;5022522;28;20186;-65
2023/02/07 07:34:48;;;;;;;12.63;10.70;;;-0.80;99.70;;;;;;5016667;28;21281;-64
2023/02/07 07:37:14;;;;;;;14.60;10.48;;;-0.20;99.90;;;;;;5021448;28;20734;-65
2023/02/07 07:39:40;;;;;;;14.07;10.80;;;0.00;99.90;;;;;;5017278;28;20190;-66
2023/02/07 07:42:05;;;;;;;12.13;10.27;;;-0.10;99.90;;;;;;5019849;28;20281;-64
2023/02/07 07:44:31;;;;;;;14.17;10.83;;;-0.70;99.90;;;;;;5018997;28;20640;-66
2023/02/07 07:46:56;;;;;;;12.83;10.40;;;-0.10;99.90;;;;;;5022970;28;20329;-65
2023/02/07 07:49:22;;;;;;;15.97;10.17;;;0.00;99.90;;;;;;5019829;28;20218;-63
2023/02/07 07:51:48;;;;;;;11.23;9.70;;;0.10;99.90;;;;;;5022664;28;20214;-64
2023/02/07 07:54:14;;;;;;;12.35;9.25;;;0.10;99.90;;;;;;5017145;28;20193;-64
2023/02/07 07:56:40;;;;;;;12.45;9.20;;;0.00;99.90;;;;;;5018571;28;20206;-65
2023/02/07 07:59:06;;;;;;;12.13;9.70;;;-0.10;99.90;;;;;;5016828;28;21524;-64
2023/02/07 08:01:31;;;;;;;12.57;8.83;;;-0.30;99.90;;;;;;5016483;28;20313;-64
2023/02/07 08:03:57;;;;;;;14.77;10.43;;;-0.30;99.90;;;;;;5018304;28;20193;-63
2023/02/07 08:06:22;;;;;;;13.43;9.40;;;0.10;99.90;;;;;;5022283;28;20217;-63
2023/02/07 08:08:48;;;;;;;14.50;10.10;;;0.20;99.90;;;;;;5016803;28;20190;-63
2023/02/07 08:11:14;;;;;;;13.93;9.57;;;-0.40;99.90;;;;;;5018890;28;20209;-63
2023/02/07 08:13:39;;;;;;;26.47;18.80;;;-0.50;99.90;;;;;;5017981;28;22049;-62
2023/02/07 08:16:09;;;;;;;14.37;12.27;;;0.30;99.90;;;;;;5019032;28;20210;-62
2023/02/07 08:18:35;;;;;;;16.25;11.25;;;0.40;99.90;;;;;;5020918;28;20667;-64
2023/02/07 08:21:01;;;;;;;16.30;10.90;;;0.20;99.90;;;;;;5015074;28;20197;-65
2023/02/07 08:23:27;;;;;;;14.83;12.03;;;0.70;99.90;;;;;;5016147;28;20547;-66
2023/02/07 08:25:52;;;;;;;14.57;11.00;;;0.40;99.90;;;;;;5017646;28;20473;-63
2023/02/07 08:28:18;;;;;;;14.33;11.10;;;-0.30;99.90;;;;;;5022047;28;20227;-66
2023/02/07 08:30:46;;;;;;;13.93;10.67;;;0.40;99.90;;;;;;5016996;28;20214;-66
2023/02/07 08:33:12;;;;;;;14.75;11.23;;;0.40;99.90;;;;;;5020039;28;20195;-66
2023/02/07 08:35:38;;;;;;;14.40;10.45;;;0.50;99.60;;;;;;5020031;28;20201;-66
2023/02/07 08:38:03;;;;;;;14.17;10.87;;;0.00;99.90;;;;;;5013522;28;20786;-64
2023/02/07 08:40:29;;;;;;;15.87;10.40;;;0.50;99.30;;;;;;5015812;28;20190;-64
2023/02/07 08:42:54;;;;;;;13.80;11.40;;;0.60;99.30;;;;;;5006352;28;20183;-63
2023/02/07 08:45:20;;;;;;;13.10;9.50;;;0.70;98.70;;;;;;5017202;28;20201;-62
2023/02/07 08:47:46;;;;;;;12.90;9.50;;;0.50;99.00;;;;;;5016952;28;21315;-64
2023/02/07 08:50:13;;;;;;;13.70;9.40;;;-0.10;98.50;;;;;;5020026;28;20231;-67
2023/02/07 08:52:39;;;;;;;10.20;8.57;;;0.00;98.70;;;;;;5022952;28;20228;-67
2023/02/07 08:55:05;;;;;;;15.40;10.50;;;0.50;98.90;;;;;;5013497;28;20281;-68
2023/02/07 08:57:30;;;;;;;10.10;8.80;;;0.60;99.30;;;;;;5013456;28;20468;-68
2023/02/07 08:59:57;;;;;;;11.67;9.70;;;0.90;99.10;;;;;;4996891;28;20190;-65
2023/02/07 09:02:22;;;;;;;12.63;9.68;;;0.90;99.60;;;;;;5017003;28;20205;-64
2023/02/07 09:04:48;;;;;;;11.90;9.80;;;0.90;99.50;;;;;;4999232;28;20191;-64
2023/02/07 09:07:14;;;;;;;15.73;9.40;;;1.00;99.80;;;;;;5015501;28;20214;-63
2023/02/07 09:09:40;;;;;;;12.97;9.23;;;0.90;99.50;;;;;;5004889;28;20321;-63
2023/02/07 09:12:06;;;;;;;10.63;8.73;;;1.60;99.10;;;;;;5021669;28;20471;-64
2023/02/07 09:14:32;;;;;;;12.15;8.50;;;2.70;97.80;;;;;;5018056;28;21009;-65
2023/02/07 09:16:57;;;;;;;10.43;8.30;;;3.90;93.70;;;;;;5016385;28;20240;-66
2023/02/07 09:19:23;;;;;;;12.43;9.00;;;5.50;91.60;;;;;;5014713;28;20539;-65
2023/02/07 09:21:49;;;;;;;9.57;8.43;;;5.30;90.00;;;;;;5012640;28;20521;-67
2023/02/07 09:24:14;;;;;;;12.50;8.90;;;5.60;89.90;;;;;;4999934;28;20201;-68
2023/02/07 09:26:40;;;;;;;14.07;9.13;;;4.90;89.20;;;;;;5018592;28;20228;-69
2023/02/07 09:29:06;;;;;;;9.93;8.70;;;5.20;88.90;;;;;;5019818;28;20198;-67
2023/02/07 09:31:33;;;;;;;12.77;10.05;;;5.40;87.20;;;;;;5018791;28;20293;-68
2023/02/07 09:33:59;;;;;;;11.55;9.00;;;6.00;86.30;;;;;;5021998;28;21147;-68
2023/02/07 09:36:27;;;;;;;9.57;8.40;;;6.40;84.00;;;;;;5002121;28;20221;-68
2023/02/07 09:38:54;;;;;;;9.85;8.85;;;6.60;83.40;;;;;;5002737;28;20459;-69
2023/02/07 09:41:51;;;;;;;9.30;8.35;;;7.10;81.60;;;;;;5022337;28;20186;-67
2023/02/07 09:44:24;;;;;;;11.63;8.65;;;8.20;76.80;;;;;;5017059;28;21100;-66
2023/02/07 09:47:04;;;;;;;9.13;8.23;;;8.80;74.00;;;;;;5016048;28;20210;-66
2023/02/07 09:50:00;;;;;;;11.00;9.90;;;9.40;71.10;;;;;;5017961;28;20187;-65
2023/02/07 09:52:48;;;;;;;10.45;8.60;;;9.90;70.70;;;;;;5014713;28;20245;-65
2023/02/07 09:55:25;;;;;;;12.25;9.75;;;10.40;66.00;;;;;;4997676;28;20635;-65
2023/02/07 09:58:05;;;;;;;10.00;9.10;;;9.60;65.50;;;;;;5013812;28;20900;-66
2023/02/07 10:00:36;;;;;;;9.98;8.98;;;8.80;66.40;;;;;;5014049;28;20191;-66
2023/02/07 10:03:22;;;;;;;12.27;9.45;;;8.50;70.20;;;;;;5012901;28;20283;-65
2023/02/07 10:05:57;;;;;;;14.98;9.85;;;7.70;69.70;;;;;;5015674;28;20232;-67
2023/02/07 10:08:23;;;;;;;10.60;9.60;;;7.70;72.90;;;;;;5001921;28;20576;-67
2023/02/07 10:10:52;;;;;;;11.27;10.07;;;6.60;75.80;;;;;;5016351;28;20207;-66
2023/02/07 10:13:29;;;;;;;10.88;9.50;;;6.60;77.50;;;;;;5020121;28;20182;-66
2023/02/07 10:16:25;;;;;;;11.65;10.05;;;7.10;78.50;;;;;;5017723;28;20296;-66
2023/02/07 10:19:16;;;;;;;10.25;8.95;;;6.40;78.50;;;;;;5016775;28;20529;-66
2023/02/07 10:22:12;;;;;;;9.85;8.85;;;6.60;78.70;;;;;;5022620;28;20735;-66
2023/02/07 10:24:50;;;;;;;10.38;9.38;;;7.00;76.70;;;;;;5012720;28;20187;-64
2023/02/07 10:27:29;;;;;;;13.98;9.77;;;6.90;75.00;;;;;;5018177;28;20218;-67
2023/02/07 10:30:10;;;;;;;10.23;9.18;;;7.60;74.40;;;;;;5019113;28;20185;-66
2023/02/07 10:43:46;;;;;;;11.32;9.30;;;6.80;79.10;;;;;;5035114;28;20217;-88
2023/02/07 10:46:15;;;;;;;11.35;10.15;;;7.40;75.40;;;;;;5014582;28;20236;-80
2023/02/07 10:48:41;;;;;;;10.65;9.48;;;8.40;73.00;;;;;;5022545;28;20264;-81
2023/02/07 10:51:30;;;;;;;11.48;9.52;;;9.70;70.20;;;;;;5020289;28;20267;-82
2023/02/07 10:54:08;;;;;;;10.88;9.10;;;9.30;67.80;;;;;;5039989;28;20190;-82
2023/02/07 10:56:40;;;;;;;12.77;9.35;;;9.40;66.20;;;;;;5024506;28;20183;-83
2023/02/07 10:59:05;;;;;;;11.77;10.20;;;9.80;66.70;;;;;;5036720;28;20183;-83
2023/02/07 11:01:33;;;;;;;10.03;9.13;;;10.20;64.00;;;;;;5028178;28;20206;-81
2023/02/07 11:03:59;;;;;;;15.30;9.82;;;10.40;63.10;;;;;;5025834;28;20762;-80
2023/02/07 11:06:30;;;;;;;10.15;9.15;;;10.70;61.30;;;;;;5038266;28;20192;-82
2023/02/07 11:09:26;;;;;;;17.98;10.40;;;11.00;60.60;;;;;;5023373;28;20787;-80
2023/02/07 11:11:53;;;;;;;10.27;8.90;;;9.30;62.50;;;;;;5009084;28;20241;-86
2023/02/07 11:14:25;;;;;;;9.90;9.00;;;9.80;63.50;;;;;;5031100;28;20195;-84
2023/02/07 11:16:56;;;;;;;11.50;9.63;;;9.50;63.80;;;;;;5032650;28;20183;-84
2023/02/07 11:19:28;;;;;;;14.00;10.13;;;9.10;63.20;;;;;;5042434;28;20222;-84
2023/02/07 11:22:18;;;;;;;9.77;8.65;;;9.60;65.40;;;;;;5023763;28;20204;-85
2023/02/07 11:24:46;;;;;;;12.27;9.20;;;10.70;60.40;;;;;;5023350;28;20223;-85
2023/02/07 11:27:15;;;;;;;11.15;9.65;;;10.90;60.40;;;;;;5032764;28;20263;-85
2023/02/07 11:30:04;;;;;;;11.32;9.07;;;10.60;61.00;;;;;;5036026;28;20698;-85
2023/02/07 11:32:30;;;;;;;10.45;9.43;;;10.40;61.20;;;;;;5049999;28;20183;-85
2023/02/07 11:35:18;;;;;;;11.03;9.93;;;10.30;60.40;;;;;;5045996;28;20244;-86
2023/02/07 11:38:01;;;;;;;13.60;10.23;;;10.30;61.20;;;;;;5017737;28;20230;-86
2023/02/07 11:40:35;;;;;;;11.85;9.93;;;9.70;64.30;;;;;;5038641;28;20209;-85
2023/02/07 11:43:05;;;;;;;11.40;9.25;;;9.60;64.60;;;;;;5029727;28;20186;-85
2023/02/07 11:45:36;;;;;;;12.82;10.88;;;9.60;67.40;;;;;;5047840;28;20569;-87
2023/02/07 11:48:02;;;;;;;12.40;11.20;;;8.60;67.20;;;;;;5027568;28;20212;-85
2023/02/07 11:50:34;;;;;;;11.10;10.00;;;8.60;72.10;;;;;;5035903;28;20206;-84
2023/02/07 11:53:00;;;;;;;13.57;9.75;;;8.60;69.60;;;;;;5030587;28;20178;-85
2023/02/07 11:55:37;;;;;;;9.65;8.65;;;9.70;69.30;;;;;;5031144;28;20178;-87
2023/02/07 11:58:17;;;;;;;10.82;9.68;;;9.20;71.10;;;;;;5032470;28;20177;-86
2023/02/07 12:00:43;;;;;;;10.25;8.73;;;8.80;70.90;;;;;;5046843;28;20347;-87
2023/02/07 12:03:27;;;;;;;12.05;9.85;;;8.90;73.40;;;;;;5035469;28;20261;-87
2023/02/07 12:05:57;;;;;;;14.90;9.90;;;9.10;67.90;;;;;;5032102;28;20197;-85
2023/02/07 12:08:26;;;;;;;11.60;9.82;;;8.40;69.70;;;;;;5035867;28;20189;-85
2023/02/07 12:11:10;;;;;;;11.45;10.23;;;8.40;70.80;;;;;;5045527;28;20210;-87
2023/02/07 12:13:41;;;;;;;12.57;10.50;;;7.80;70.80;;;;;;5031580;28;20182;-84
2023/02/07 12:16:16;;;;;;;10.80;9.65;;;7.90;68.50;;;;;;5031264;28;20284;-85
2023/02/07 12:19:09;;;;;;;10.95;9.80;;;7.50;68.50;;;;;;5031078;28;20178;-86
2023/02/07 12:22:17;;;;;;;12.23;10.93;;;7.20;72.10;;;;;;5019369;28;20693;-86
2023/02/07 12:24:57;;;;;;;13.45;10.00;;;7.10;72.90;;;;;;4957267;28;20244;-87
2023/02/07 12:27:31;;;;;;;10.90;9.80;;;6.60;72.30;;;;;;4955826;28;20762;-86
2023/02/07 12:30:29;;;;;;;10.48;9.15;;;7.10;73.60;;;;;;5000381;28;20275;-86
2023/02/07 12:33:20;;;;;;;11.00;9.27;;;6.90;74.00;;;;;;5042007;28;20212;-85
2023/02/07 12:36:18;;;;;;;11.80;10.60;;;7.20;74.60;;;;;;5028005;28;20186;-85
2023/02/07 12:38:57;;;;;;;10.90;9.77;;;6.80;74.80;;;;;;5024086;28;20688;-87
2023/02/07 12:41:28;;;;;;;9.88;8.88;;;6.90;74.60;;;;;;5028447;28;20205;-86
2023/02/07 12:44:09;;;;;;;13.57;10.82;;;7.40;73.90;;;;;;5025148;28;20178;-86
2023/02/07 12:46:56;;;;;;;11.70;9.50;;;6.70;73.80;;;;;;5027630;28;20221;-85
2023/02/07 12:49:46;;;;;;;11.18;9.20;;;6.70;74.30;;;;;;5044634;28;20213;-85
2023/02/07 12:52:53;;;;;;;13.73;10.82;;;6.80;75.30;;;;;;5035188;28;20201;-84
2023/02/07 12:55:43;;;;;;;13.88;9.95;;;6.90;74.30;;;;;;5023256;28;20186;-83
2023/02/07 12:58:35;;;;;;;12.60;9.43;;;6.40;72.90;;;;;;5025891;28;20597;-82
2023/02/07 13:01:10;;;;;;;11.73;8.75;;;6.70;74.70;;;;;;5027404;28;20645;-83
2023/02/07 13:03:44;;;;;;;12.35;8.40;;;6.40;73.60;;;;;;5033030;28;20182;-84
2023/02/07 13:06:29;;;;;;;9.00;8.10;;;6.50;69.80;;;;;;5042155;28;20194;-83
2023/02/07 13:09:02;;;;;;;8.73;7.07;;;6.60;70.40;;;;;;5020507;28;20190;-83
2023/02/07 13:11:40;;;;;;;8.55;7.60;;;6.40;69.20;;;;;;5025153;28;20216;-85
2023/02/07 13:14:35;;;;;;;10.38;7.10;;;6.40;68.60;;;;;;5026568;28;21279;-88